createdAt,value
2019-03-25T00:00:10.557Z,38.50
2019-03-25T00:02:38.777Z,37.05
2019-03-25T00:05:07.104Z,36.77
2019-03-25T00:07:35.317Z,37.85
2019-03-25T00:10:04.683Z,34.30
2019-03-25T00:12:33.892Z,39.30
2019-03-25T00:15:02.117Z,36.25
2019-03-25T00:17:30.364Z,35.43
2019-03-25T00:19:58.613Z,40.58
2019-03-25T00:22:26.932Z,36.65
2019-03-25T00:24:55.154Z,35.50
2019-03-25T00:27:23.371Z,36.70
2019-03-25T00:29:51.643Z,38.40
2019-03-25T00:32:22.700Z,39.85
2019-03-25T00:34:50.934Z,40.75
2019-03-25T00:37:19.133Z,36.98
2019-03-25T00:39:47.356Z,36.90
2019-03-25T00:42:15.564Z,38.92
2019-03-25T00:44:43.801Z,40.88
2019-03-25T00:47:12.006Z,37.30
2019-03-25T00:49:40.230Z,36.13
2019-03-25T00:52:08.466Z,38.85
2019-03-25T00:54:49.502Z,38.70
2019-03-25T00:57:09.267Z,37.83
2019-03-25T00:59:37.480Z,40.23
2019-03-25T01:02:05.702Z,36.13
2019-03-25T01:04:33.962Z,35.83
2019-03-25T01:07:02.159Z,39.90
2019-03-25T01:09:30.415Z,39.23
2019-03-25T01:11:58.634Z,41.15
2019-03-25T01:14:26.845Z,40.58
2019-03-25T01:16:55.074Z,44.03
2019-03-25T01:19:23.322Z,40.73
2019-03-25T01:21:51.572Z,43.20
2019-03-25T01:24:19.819Z,40.05
2019-03-25T01:26:48.054Z,42.38
2019-03-25T01:29:16.271Z,39.30
2019-03-25T01:31:44.485Z,39.67
2019-03-25T01:34:12.701Z,39.53
2019-03-25T01:36:40.959Z,40.98
2019-03-25T01:39:09.198Z,41.50
2019-03-25T01:41:37.463Z,38.40
2019-03-25T01:44:05.680Z,37.17
2019-03-25T01:46:33.905Z,37.40
2019-03-25T01:49:02.126Z,34.40
2019-03-25T01:51:30.353Z,38.65
2019-03-25T01:53:58.938Z,41.40
2019-03-25T01:56:27.562Z,37.58
2019-03-25T01:58:55.815Z,39.78
2019-03-25T02:01:24.059Z,39.40
2019-03-25T02:03:52.295Z,40.30
2019-03-25T02:06:20.522Z,35.23
2019-03-25T02:08:48.736Z,34.50
2019-03-25T02:11:17.966Z,38.50
2019-03-25T02:13:46.305Z,37.60
2019-03-25T02:16:14.537Z,37.53
2019-03-25T02:18:42.762Z,37.75
2019-03-25T02:21:11.011Z,38.42
2019-03-25T02:23:39.225Z,40.20
2019-03-25T02:26:07.539Z,38.25
2019-03-25T02:28:35.848Z,40.98
2019-03-25T02:31:04.093Z,37.30
2019-03-25T02:33:32.386Z,41.53
2019-03-25T02:36:00.668Z,42.38
2019-03-25T02:38:29.435Z,41.63
2019-03-25T02:40:57.687Z,41.02
2019-03-25T02:43:25.976Z,39.65
2019-03-25T02:45:54.241Z,37.63
2019-03-25T02:48:22.456Z,38.48
2019-03-25T02:50:50.685Z,35.83
2019-03-25T02:53:18.923Z,37.63
2019-03-25T02:55:47.214Z,38.98
2019-03-25T02:58:15.437Z,39.13
2019-03-25T03:00:43.670Z,39.95
2019-03-25T03:03:11.892Z,38.83
2019-03-25T03:05:40.143Z,42.78
2019-03-25T03:08:08.370Z,42.15
2019-03-25T03:10:36.911Z,40.73
2019-03-25T03:13:05.152Z,43.00
2019-03-25T03:15:33.475Z,42.45
2019-03-25T03:18:01.770Z,46.35
2019-03-25T03:20:29.968Z,44.03
2019-03-25T03:22:58.200Z,45.15
2019-03-25T03:25:26.418Z,44.27
2019-03-25T03:27:54.655Z,44.35
2019-03-25T03:30:22.927Z,43.42
2019-03-25T03:32:51.191Z,43.20
2019-03-25T03:35:19.409Z,43.55
2019-03-25T03:37:47.632Z,47.25
2019-03-25T03:40:15.852Z,42.40
2019-03-25T03:42:44.144Z,42.55
2019-03-25T03:45:12.384Z,40.65
2019-03-25T03:47:41.990Z,43.20
2019-03-25T03:50:14.072Z,40.05
2019-03-25T03:52:43.504Z,43.42
2019-03-25T03:55:11.713Z,40.52
2019-03-25T03:57:39.966Z,41.73
2019-03-25T04:00:09.880Z,39.78
2019-03-25T04:02:38.104Z,40.30
2019-03-25T04:05:06.374Z,39.50
2019-03-25T04:07:34.609Z,39.27
2019-03-25T04:10:03.425Z,37.58
2019-03-25T04:12:31.641Z,39.48
2019-03-25T04:14:59.949Z,37.45
2019-03-25T04:17:28.167Z,39.40
2019-03-25T04:19:56.460Z,39.83
2019-03-25T04:22:24.668Z,40.00
2019-03-25T04:24:52.903Z,38.10
2019-03-25T04:27:22.754Z,39.65
2019-03-25T04:29:50.986Z,38.28
2019-03-25T04:32:19.199Z,44.42
2019-03-25T04:34:47.461Z,42.03
2019-03-25T04:37:15.742Z,40.58
2019-03-25T04:39:43.976Z,41.73
2019-03-25T04:42:12.673Z,42.43
2019-03-25T04:44:40.935Z,38.33
2019-03-25T04:47:09.144Z,39.08
2019-03-25T04:49:37.377Z,38.10
2019-03-25T04:52:05.634Z,36.88
2019-03-25T04:54:33.964Z,40.73
2019-03-25T04:57:02.211Z,37.90
2019-03-25T04:59:30.429Z,39.15
2019-03-25T05:02:00.546Z,37.90
2019-03-25T05:04:28.811Z,38.23
2019-03-25T05:06:57.013Z,42.30
2019-03-25T05:09:25.251Z,42.38
2019-03-25T05:11:53.477Z,42.33
2019-03-25T05:14:21.760Z,47.58
2019-03-25T05:16:49.978Z,45.45
2019-03-25T05:19:18.190Z,45.55
2019-03-25T05:21:46.446Z,44.15
2019-03-25T05:24:14.703Z,46.35
2019-03-25T05:26:51.029Z,46.15
2019-03-25T05:29:12.894Z,45.58
2019-03-25T05:31:41.099Z,43.48
2019-03-25T05:34:09.362Z,46.23
2019-03-25T05:36:38.529Z,42.93
2019-03-25T05:39:08.384Z,45.25
2019-03-25T05:41:36.701Z,43.63
2019-03-25T05:44:04.940Z,39.10
2019-03-25T05:46:33.238Z,40.40
2019-03-25T05:49:01.486Z,39.00
2019-03-25T05:51:29.706Z,41.42
2019-03-25T05:53:58.436Z,38.58
2019-03-25T05:56:26.654Z,37.65
2019-03-25T05:58:55.713Z,39.90
2019-03-25T06:01:24.301Z,37.17
2019-03-25T06:03:52.542Z,36.50
2019-03-25T06:06:20.786Z,34.00
2019-03-25T06:08:49.361Z,34.98
2019-03-25T06:11:17.622Z,33.95
2019-03-25T06:13:45.827Z,32.33
2019-03-25T06:16:14.052Z,32.85
2019-03-25T06:18:42.295Z,28.47
2019-03-25T06:21:10.515Z,31.57
2019-03-25T06:23:38.756Z,28.70
2019-03-25T06:26:07.384Z,28.40
2019-03-25T06:28:35.636Z,26.17
2019-03-25T06:31:03.886Z,24.92
2019-03-25T06:33:32.136Z,23.52
2019-03-25T06:36:00.524Z,23.27
2019-03-25T06:38:28.749Z,24.32
2019-03-25T06:40:56.973Z,22.65
2019-03-25T06:43:25.198Z,21.93
2019-03-25T06:45:53.425Z,21.17
2019-03-25T06:48:21.645Z,21.55
2019-03-25T06:50:49.874Z,20.10
2019-03-25T06:53:18.098Z,21.05
2019-03-25T06:55:46.795Z,21.00
2019-03-25T06:58:15.010Z,20.65
2019-03-25T07:00:43.234Z,19.05
2019-03-25T07:03:11.455Z,18.17
2019-03-25T07:05:39.673Z,18.55
2019-03-25T07:08:07.950Z,17.82
2019-03-25T07:10:36.889Z,16.93
2019-03-25T07:13:05.307Z,16.70
2019-03-25T07:15:33.530Z,15.45
2019-03-25T07:18:01.736Z,17.00
2019-03-25T07:20:29.971Z,15.50
2019-03-25T07:22:58.218Z,16.07
2019-03-25T07:25:26.435Z,14.78
2019-03-25T07:27:54.666Z,15.08
2019-03-25T07:30:23.296Z,15.23
2019-03-25T07:32:51.511Z,14.20
2019-03-25T07:35:21.426Z,14.03
2019-03-25T07:37:50.301Z,12.47
2019-03-25T07:40:37.982Z,14.40
2019-03-25T07:43:06.193Z,13.75
2019-03-25T07:45:34.418Z,13.43
2019-03-25T07:48:04.174Z,13.25
2019-03-25T07:50:33.215Z,11.97
2019-03-25T07:53:01.399Z,15.10
2019-03-25T07:55:29.683Z,12.73
2019-03-25T07:57:57.949Z,11.88
2019-03-25T08:00:26.183Z,12.23
2019-03-25T08:02:54.410Z,12.03
2019-03-25T08:05:22.606Z,12.20
2019-03-25T08:07:50.838Z,11.85
2019-03-25T08:10:31.220Z,12.65
2019-03-25T08:13:02.023Z,11.55
2019-03-25T08:15:30.301Z,12.40
2019-03-25T08:17:58.610Z,12.20
2019-03-25T08:20:27.272Z,12.37
2019-03-25T08:22:55.510Z,13.22
2019-03-25T08:25:23.737Z,12.30
2019-03-25T08:27:59.969Z,11.55
2019-03-25T08:30:21.924Z,12.58
2019-03-25T08:32:50.151Z,11.45
2019-03-25T08:35:18.367Z,12.35
2019-03-25T08:37:46.674Z,10.82
2019-03-25T08:40:14.945Z,10.68
2019-03-25T08:42:43.170Z,10.40
2019-03-25T08:45:11.396Z,10.15
2019-03-25T08:47:39.681Z,10.68
2019-03-25T08:50:08.766Z,11.03
2019-03-25T08:52:37.032Z,10.35
2019-03-25T08:55:06.215Z,10.98
2019-03-25T08:57:34.432Z,10.00
2019-03-25T09:00:03.097Z,9.65
2019-03-25T09:02:32.781Z,9.03
2019-03-25T09:05:01.048Z,9.40
2019-03-25T09:07:29.314Z,9.70
2019-03-25T09:09:57.530Z,9.30
2019-03-25T09:12:25.754Z,9.45
2019-03-25T09:14:53.974Z,10.23
2019-03-25T09:17:22.253Z,9.63
2019-03-25T09:19:50.479Z,9.55
2019-03-25T09:22:18.691Z,9.38
2019-03-25T09:24:46.902Z,9.23
2019-03-25T09:27:15.130Z,8.85
2019-03-25T09:29:43.337Z,9.90
2019-03-25T09:32:11.570Z,8.78
2019-03-25T09:34:39.788Z,9.70
2019-03-25T09:37:08.020Z,8.28
2019-03-25T09:39:36.237Z,9.18
2019-03-25T09:42:04.730Z,8.55
2019-03-25T09:44:32.943Z,8.30
2019-03-25T09:47:01.172Z,8.03
2019-03-25T09:49:29.391Z,8.03
2019-03-25T09:51:57.634Z,7.83
2019-03-25T09:54:25.863Z,7.83
2019-03-25T09:56:54.093Z,7.60
2019-03-25T09:59:22.356Z,7.50
2019-03-25T10:01:50.577Z,7.22
2019-03-25T10:04:20.155Z,6.80
2019-03-25T10:06:48.506Z,6.60
2019-03-25T10:09:16.722Z,7.83
2019-03-25T10:11:44.954Z,6.90
2019-03-25T10:14:13.174Z,6.53
2019-03-25T10:16:41.397Z,6.33
2019-03-25T10:19:10.385Z,6.28
2019-03-25T10:21:38.808Z,6.65
2019-03-25T10:24:07.115Z,6.03
2019-03-25T10:26:35.358Z,6.55
2019-03-25T10:29:03.629Z,6.17
2019-03-25T10:31:31.841Z,7.20
2019-03-25T10:34:00.073Z,6.50
2019-03-25T10:36:28.336Z,6.10
2019-03-25T10:38:56.582Z,5.83
2019-03-25T10:41:24.794Z,5.33
2019-03-25T10:43:53.023Z,4.62
2019-03-25T10:46:21.247Z,5.10
2019-03-25T10:48:49.507Z,4.33
2019-03-25T10:51:17.755Z,4.50
2019-03-25T10:53:46.042Z,4.30
2019-03-25T10:56:14.254Z,3.67
2019-03-25T10:58:42.481Z,3.50
2019-03-25T11:01:10.691Z,3.58
2019-03-25T11:03:38.924Z,4.12
2019-03-25T11:06:07.137Z,2.80
2019-03-25T11:08:35.384Z,2.83
2019-03-25T11:11:03.666Z,3.20
2019-03-25T11:13:31.914Z,3.27
2019-03-25T11:16:00.140Z,2.65
2019-03-25T11:18:28.345Z,3.40
2019-03-25T11:20:56.575Z,3.70
2019-03-25T11:23:24.832Z,3.42
2019-03-25T11:25:53.080Z,2.83
2019-03-25T11:28:21.339Z,2.95
2019-03-25T11:30:51.094Z,3.30
2019-03-25T11:33:19.317Z,2.60
2019-03-25T11:35:47.533Z,2.83
2019-03-25T11:38:15.750Z,2.37
2019-03-25T11:40:43.955Z,2.35
2019-03-25T11:43:12.175Z,2.85
2019-03-25T11:45:40.395Z,2.35
2019-03-25T11:48:08.665Z,2.00
2019-03-25T11:50:36.887Z,1.77
2019-03-25T11:53:05.101Z,2.00
2019-03-25T11:55:33.347Z,1.70
2019-03-25T11:58:01.589Z,1.87
2019-03-25T12:00:29.831Z,2.40
2019-03-25T12:02:58.974Z,2.15
2019-03-25T12:05:27.197Z,1.95
2019-03-25T12:07:55.430Z,2.33
2019-03-25T12:10:23.641Z,2.10
2019-03-25T12:12:51.854Z,2.10
2019-03-25T12:15:20.111Z,1.98
2019-03-25T12:17:48.322Z,1.80
2019-03-25T12:20:16.581Z,1.95
2019-03-25T12:22:44.795Z,2.30
2019-03-25T12:25:13.013Z,2.17
2019-03-25T12:27:41.261Z,2.27
2019-03-25T12:30:10.005Z,2.30
2019-03-25T12:32:38.216Z,2.35
2019-03-25T12:35:06.939Z,2.33
2019-03-25T12:37:35.150Z,2.20
2019-03-25T12:40:03.743Z,2.90
2019-03-25T12:42:31.969Z,2.40
2019-03-25T12:45:00.345Z,2.30
2019-03-25T12:47:28.627Z,2.20
2019-03-25T12:49:56.842Z,2.27
2019-03-25T12:52:25.068Z,2.70
2019-03-25T12:54:53.342Z,2.77
2019-03-25T12:57:21.621Z,2.90
2019-03-25T12:59:49.855Z,2.40
2019-03-25T13:02:18.079Z,2.65
2019-03-25T13:04:46.305Z,2.72
2019-03-25T13:07:14.578Z,2.67
2019-03-25T13:09:42.796Z,2.70
2019-03-25T13:12:11.016Z,2.30
2019-03-25T13:14:40.252Z,2.45
2019-03-25T13:17:08.500Z,2.50
2019-03-25T13:19:36.726Z,2.85
2019-03-25T13:22:04.939Z,2.67
2019-03-25T13:24:33.195Z,2.40
2019-03-25T13:27:01.413Z,3.02
2019-03-25T13:29:29.634Z,2.67
2019-03-25T13:31:57.936Z,3.00
2019-03-25T13:34:26.176Z,3.42
2019-03-25T13:36:54.425Z,3.50
2019-03-25T13:39:22.645Z,3.40
2019-03-25T13:41:50.867Z,3.15
2019-03-25T13:44:19.106Z,3.20
2019-03-25T13:46:47.331Z,3.50
2019-03-25T13:49:15.573Z,3.12
2019-03-25T13:51:43.793Z,2.90
2019-03-25T13:54:12.016Z,2.95
2019-03-25T13:56:40.242Z,3.12
2019-03-25T13:59:08.461Z,3.00
2019-03-25T14:01:36.691Z,2.27
2019-03-25T14:04:04.903Z,2.50
2019-03-25T14:06:33.135Z,2.52
2019-03-25T14:09:02.412Z,2.05
2019-03-25T14:11:30.662Z,1.87
2019-03-25T14:14:00.273Z,1.47
2019-03-25T14:16:28.709Z,1.98
2019-03-25T14:18:56.910Z,2.10
2019-03-25T14:21:25.139Z,2.10
2019-03-25T14:23:53.350Z,1.98
2019-03-25T14:26:21.594Z,2.02
2019-03-25T14:28:49.791Z,2.10
2019-03-25T14:31:18.010Z,2.20
2019-03-25T14:33:47.209Z,2.37
2019-03-25T14:36:15.467Z,2.17
2019-03-25T14:38:43.673Z,2.22
2019-03-25T14:41:11.897Z,2.22
2019-03-25T14:43:40.118Z,3.15
2019-03-25T14:46:08.333Z,2.40
2019-03-25T14:48:36.540Z,2.27
2019-03-25T14:51:04.792Z,3.00
2019-03-25T14:53:33.025Z,2.90
2019-03-25T14:56:01.262Z,3.10
2019-03-25T14:58:29.461Z,3.20
2019-03-25T15:00:57.705Z,3.37
2019-03-25T15:03:25.918Z,3.50
2019-03-25T15:05:54.172Z,5.58
2019-03-25T15:08:22.383Z,3.45
2019-03-25T15:10:53.706Z,3.22
2019-03-25T15:13:20.584Z,2.83
2019-03-25T15:15:48.791Z,2.72
2019-03-25T15:18:17.050Z,2.00
2019-03-25T15:20:45.265Z,2.45
2019-03-25T15:23:13.482Z,2.47
2019-03-25T15:25:41.719Z,2.35
2019-03-25T15:28:10.055Z,2.37
2019-03-25T15:30:38.258Z,2.60
2019-03-25T15:33:06.471Z,2.47
2019-03-25T15:35:34.693Z,4.10
2019-03-25T15:38:02.929Z,2.70
2019-03-25T15:40:31.219Z,2.27
2019-03-25T15:42:59.575Z,2.65
2019-03-25T15:45:27.775Z,3.08
2019-03-25T15:47:56.029Z,3.15
2019-03-25T15:50:25.245Z,2.90
2019-03-25T15:53:12.976Z,3.00
2019-03-25T15:55:41.178Z,3.08
2019-03-25T15:58:09.394Z,3.02
2019-03-25T16:00:47.101Z,3.40
2019-03-25T16:03:07.570Z,2.85
2019-03-25T16:05:35.782Z,3.58
2019-03-25T16:08:04.001Z,3.83
2019-03-25T16:10:32.216Z,3.65
2019-03-25T16:13:00.464Z,3.20
2019-03-25T16:15:43.937Z,3.58
2019-03-25T16:18:18.160Z,3.95
2019-03-25T16:20:46.415Z,3.70
2019-03-25T16:23:16.730Z,3.80
2019-03-25T16:25:44.981Z,4.28
2019-03-25T16:28:13.243Z,4.47
2019-03-25T16:30:41.439Z,4.67
2019-03-25T16:33:09.715Z,4.42
2019-03-25T16:35:37.938Z,4.37
2019-03-25T16:38:06.199Z,3.27
2019-03-25T16:40:34.824Z,9.20
2019-03-25T16:43:03.074Z,3.75
2019-03-25T16:45:31.803Z,3.45
2019-03-25T16:48:00.016Z,3.10
2019-03-25T16:50:28.259Z,2.52
2019-03-25T16:52:56.498Z,2.80
2019-03-25T16:55:24.705Z,2.50
2019-03-25T16:57:52.929Z,2.27
2019-03-25T17:00:27.226Z,2.00
2019-03-25T17:02:51.068Z,2.92
2019-03-25T17:05:19.283Z,2.50
2019-03-25T17:07:47.506Z,2.40
2019-03-25T17:10:15.713Z,2.47
2019-03-25T17:12:43.963Z,2.60
2019-03-25T17:15:31.649Z,2.80
2019-03-25T17:18:00.841Z,2.72
2019-03-25T17:20:29.055Z,3.00
2019-03-25T17:22:57.270Z,2.42
2019-03-25T17:25:25.547Z,2.72
2019-03-25T17:27:53.843Z,2.62
2019-03-25T17:30:23.190Z,2.42
2019-03-25T17:32:51.401Z,2.55
2019-03-25T17:35:19.639Z,2.30
2019-03-25T17:37:47.851Z,3.22
2019-03-25T17:40:16.093Z,5.55
2019-03-25T17:42:44.433Z,3.77
2019-03-25T17:45:12.725Z,2.98
2019-03-25T17:47:40.971Z,2.58
2019-03-25T17:50:09.746Z,2.77
2019-03-25T17:52:51.037Z,3.12
2019-03-25T17:55:19.812Z,2.70
2019-03-25T17:57:48.016Z,2.70
2019-03-25T18:00:19.677Z,2.92
2019-03-25T18:02:47.941Z,2.98
2019-03-25T18:05:16.191Z,2.77
2019-03-25T18:07:44.394Z,2.75
2019-03-25T18:10:12.630Z,3.22
2019-03-25T18:12:40.832Z,2.62
2019-03-25T18:15:10.696Z,3.37
2019-03-25T18:17:38.904Z,2.98
2019-03-25T18:20:18.211Z,3.15
2019-03-25T18:22:41.667Z,3.30
2019-03-25T18:25:09.890Z,3.17
2019-03-25T18:27:38.103Z,3.20
2019-03-25T18:30:07.736Z,3.12
2019-03-25T18:32:35.938Z,3.02
2019-03-25T18:35:17.714Z,3.12
2019-03-25T18:37:46.260Z,2.77
2019-03-25T18:40:14.475Z,3.25
2019-03-25T18:42:42.682Z,2.22
2019-03-25T18:45:10.925Z,1.12
2019-03-25T18:47:39.152Z,1.35
2019-03-25T18:50:07.369Z,1.10
2019-03-25T18:52:35.577Z,1.40
2019-03-25T18:55:05.574Z,1.55
2019-03-25T18:57:33.778Z,1.80
2019-03-25T19:00:02.024Z,2.02
2019-03-25T19:02:30.294Z,1.90
2019-03-25T19:04:58.594Z,1.80
2019-03-25T19:07:26.862Z,2.22
2019-03-25T19:09:55.126Z,1.90
2019-03-25T19:12:24.310Z,2.10
2019-03-25T19:14:52.631Z,1.80
2019-03-25T19:17:20.917Z,2.60
2019-03-25T19:19:49.113Z,2.00
2019-03-25T19:22:17.355Z,2.33
2019-03-25T19:24:45.611Z,10.70
2019-03-25T19:27:13.849Z,2.35
2019-03-25T19:29:42.124Z,3.00
2019-03-25T19:32:10.358Z,8.78
2019-03-25T19:34:38.668Z,4.72
2019-03-25T19:37:06.913Z,2.85
2019-03-25T19:39:35.213Z,3.22
2019-03-25T19:42:03.433Z,2.45
2019-03-25T19:44:31.653Z,2.75
2019-03-25T19:46:59.898Z,2.70
2019-03-25T19:49:28.177Z,3.02
2019-03-25T19:51:56.402Z,2.55
2019-03-25T19:54:24.618Z,2.92
2019-03-25T19:57:11.291Z,2.83
2019-03-25T19:59:39.979Z,2.72
2019-03-25T20:02:18.460Z,3.00
2019-03-25T20:04:38.145Z,2.67
2019-03-25T20:07:06.368Z,2.02
2019-03-25T20:09:34.621Z,2.70
2019-03-25T20:12:02.903Z,2.25
2019-03-25T20:14:31.180Z,2.08
2019-03-25T20:16:59.419Z,2.52
2019-03-25T20:19:27.653Z,2.65
2019-03-25T20:21:55.937Z,2.40
2019-03-25T20:24:24.188Z,2.22
2019-03-25T20:26:52.451Z,1.90
2019-03-25T20:29:20.655Z,1.62
2019-03-25T20:31:48.859Z,2.05
2019-03-25T20:34:17.070Z,2.17
2019-03-25T20:36:45.351Z,2.02
2019-03-25T20:39:13.581Z,2.02
2019-03-25T20:41:41.883Z,1.92
2019-03-25T20:44:10.161Z,2.70
2019-03-25T20:46:38.417Z,4.90
2019-03-25T20:49:06.606Z,2.72
2019-03-25T20:51:34.893Z,2.80
2019-03-25T20:54:03.134Z,2.27
2019-03-25T20:56:31.379Z,2.30
2019-03-25T20:58:59.607Z,2.17
2019-03-25T21:01:27.808Z,2.42
2019-03-25T21:03:56.123Z,2.60
2019-03-25T21:06:24.302Z,3.08
2019-03-25T21:08:52.523Z,4.08
2019-03-25T21:11:20.732Z,3.87
2019-03-25T21:13:48.937Z,3.80
2019-03-25T21:16:17.155Z,4.17
2019-03-25T21:18:45.411Z,4.30
2019-03-25T21:21:13.738Z,4.40
2019-03-25T21:23:41.965Z,4.78
2019-03-25T21:26:11.171Z,4.65
2019-03-25T21:28:39.601Z,4.65
2019-03-25T21:31:07.848Z,5.47
2019-03-25T21:33:36.147Z,4.92
2019-03-25T21:36:04.358Z,4.97
2019-03-25T21:38:32.636Z,5.22
2019-03-25T21:41:00.921Z,5.60
2019-03-25T21:43:29.129Z,4.97
2019-03-25T21:45:57.350Z,5.75
2019-03-25T21:48:25.558Z,6.37
2019-03-25T21:50:53.766Z,5.28
2019-03-25T21:53:22.003Z,5.92
2019-03-25T21:55:50.204Z,5.60
2019-03-25T21:58:18.504Z,5.37
2019-03-25T22:00:46.836Z,5.33
2019-03-25T22:03:15.039Z,5.50
2019-03-25T22:05:43.256Z,5.47
2019-03-25T22:08:11.503Z,6.05
2019-03-25T22:10:42.757Z,5.03
2019-03-25T22:13:09.685Z,4.70
2019-03-25T22:15:37.917Z,6.05
2019-03-25T22:18:06.136Z,5.85
2019-03-25T22:20:34.369Z,4.95
2019-03-25T22:23:02.582Z,5.15
2019-03-25T22:25:30.835Z,4.95
2019-03-25T22:27:59.038Z,5.15
2019-03-25T22:30:27.267Z,5.33
2019-03-25T22:32:55.494Z,5.47
2019-03-25T22:35:23.721Z,4.92
2019-03-25T22:37:51.927Z,4.90
2019-03-25T22:40:20.137Z,4.95
2019-03-25T22:42:48.382Z,4.83
2019-03-25T22:45:19.884Z,4.72
2019-03-25T22:47:48.099Z,4.83
2019-03-25T22:50:19.600Z,5.20
2019-03-25T22:52:47.809Z,4.30
2019-03-25T22:55:16.056Z,4.70
2019-03-25T22:57:44.295Z,5.30
2019-03-25T23:00:12.516Z,4.67
2019-03-25T23:02:40.727Z,4.45
2019-03-25T23:05:08.935Z,4.28
2019-03-25T23:07:37.153Z,4.62
2019-03-25T23:10:05.379Z,4.55
2019-03-25T23:12:33.598Z,4.72
2019-03-25T23:15:01.888Z,4.17
2019-03-25T23:17:30.176Z,4.22
2019-03-25T23:19:58.415Z,4.72
2019-03-25T23:22:26.705Z,4.90
2019-03-25T23:24:54.910Z,5.25
2019-03-25T23:27:23.132Z,4.30
2019-03-25T23:29:51.357Z,4.17
2019-03-25T23:32:19.580Z,4.62
2019-03-25T23:34:47.890Z,4.25
2019-03-25T23:37:16.141Z,4.22
2019-03-25T23:39:44.379Z,3.37
2019-03-25T23:42:12.585Z,3.47
2019-03-25T23:44:40.835Z,3.58
2019-03-25T23:47:09.065Z,4.35
2019-03-25T23:49:37.277Z,4.22
2019-03-25T23:52:05.508Z,4.58
2019-03-25T23:54:33.734Z,4.53
2019-03-25T23:57:01.953Z,5.45
2019-03-25T23:59:30.173Z,5.20
